Lyndonville, VT (05851)

10:42 AM EST on February 06, 2016 (GMT -0500)
Wheelock | | Change Station
CLOSE
Current Station
Personal Weather Station
Location: Lyndonville, VT
Elevation: 1207 ft
Nearby Weather Stations

Elev 1207 ft 44.56 °N, 72.09 °W | Updated 2 minutes ago

Overcast
Overcast
28.2 °F
Feels Like 28 °F
N
3.0
Wind Variable Wind from SSW
Gusts 3.0 mph

Today
High -- | Low -- °F
--% Chance of Precip.
Yesterday
High -- | Low -- °F
Precip. -- in
Pressure 30.21 in
Visibility 10.0 miles
Clouds Overcast 12000 ft
Windchill 28 °F
Dew Point 20 °F
Humidity 72%
Rainfall 0.00 in
Snow Depth Not available.
7:01 AM 5:03 PM
Waning Crescent, 5% visible
METAR KCDA 061535Z AUTO 14007KT 10SM OVC120 M02/M08 A3021 RMK AO2 T10251076
Pressure 30.21 in
Visibility 10.0 miles
Clouds Overcast 12000 ft
Windchill 28 °F
Dew Point 20 °F
Humidity 72%
Rainfall 0.00 in
Snow Depth Not available.
7:01 AM 5:03 PM
Waning Crescent, 5% visible
METAR KCDA 061535Z AUTO 14007KT 10SM OVC120 M02/M08 A3021 RMK AO2 T10251076

10-Day Weather Forecast

Almanac

Astronomy

Feb. 06, 2016 Rise Set
Actual Time
Civil Twilight
Nautical Twilight
Astronomical Twilight
Moon
Length of Visible Light
Length of Day
Tomorrow will be .
, % of the Moon is Illuminated

Today's Extremes

State Highs State Lows

Community

WunderPhotos

Upload Photos

1,890,987 photos uploaded!

WunderBlog® & News

Nearby

Air Quality

  Air Quality AQ Index Pollutant
Not available.

Snow Depth

Station Depth Elevation

Earthquake Activity

City Distance Mag. Time & Date
Minimum magnitude displayed is 2.5.

Coastal Water Temperatures

Place Temperature

Stations

Nearby Weather Stations

Station Location Temp. Windchill Dew Point Humidity Wind Precip. Elev Updated Type
                   

Watches & Warnings

There are currently no watches in effect.